Time;durP1;ratioP1;P1;durP2;ratioP2;P2;SDS_P1;SDS_P2;PMS_P1;PMS_P2;Temp;Humidity;BMP_temperature;BMP_pressure;BME280_temperature;BME280_humidity;BME280_pressure;Samples;Min_cycle;Max_cycle;Signal;HPM_P1;HPM_P2
2022/07/28 00:00:25;;;;;;;3.95;2.92;;;;;;;;;;2084474;28;20198;-65
2022/07/28 00:01:25;;;;;;;7.72;3.17;;;;;;;;;;2094453;28;20195;-65
2022/07/28 00:02:26;;;;;;;3.92;3.17;;;;;;;;;;2084140;28;20203;-65
2022/07/28 00:03:26;;;;;;;6.18;2.83;;;;;;;;;;2075522;28;20669;-67
2022/07/28 00:04:26;;;;;;;8.13;3.60;;;;;;;;;;2081934;28;20167;-65
2022/07/28 00:05:27;;;;;;;3.53;3.03;;;;;;;;;;2091592;28;20171;-66
2022/07/28 00:06:27;;;;;;;4.18;3.10;;;;;;;;;;2091979;28;20225;-65
2022/07/28 00:07:27;;;;;;;4.93;3.30;;;;;;;;;;2089955;28;20678;-65
2022/07/28 00:08:28;;;;;;;4.05;2.45;;;;;;;;;;2090425;28;20175;-65
2022/07/28 00:09:28;;;;;;;3.60;3.10;;;;;;;;;;2091347;28;20540;-65
2022/07/28 00:10:30;;;;;;;9.43;3.65;;;;;;;;;;2090655;28;20180;-67
2022/07/28 00:11:31;;;;;;;4.07;3.35;;;;;;;;;;2081696;28;20172;-65
2022/07/28 00:12:31;;;;;;;8.00;3.10;;;;;;;;;;2082573;28;20180;-65
2022/07/28 00:13:31;;;;;;;4.10;3.15;;;;;;;;;;2090652;28;20171;-64
2022/07/28 00:14:32;;;;;;;6.47;3.22;;;;;;;;;;2089161;28;20287;-65
2022/07/28 00:15:32;;;;;;;8.60;3.28;;;;;;;;;;2081497;28;20203;-64
2022/07/28 00:16:33;;;;;;;5.07;3.53;;;;;;;;;;2081678;28;20172;-67
2022/07/28 00:17:33;;;;;;;4.50;3.17;;;;;;;;;;2090467;28;20191;-67
2022/07/28 00:18:33;;;;;;;7.57;3.00;;;;;;;;;;2091486;28;20163;-65
2022/07/28 00:19:34;;;;;;;6.38;4.57;;;;;;;;;;2083962;28;20184;-67
2022/07/28 00:20:34;;;;;;;4.78;4.18;;;;;;;;;;2083060;28;20214;-65
2022/07/28 00:21:34;;;;;;;5.53;4.40;;;;;;;;;;2090885;28;20194;-65
2022/07/28 00:22:40;;;;;;;6.25;4.43;;;;;;;;;;2090239;28;20230;-66
2022/07/28 00:23:40;;;;;;;5.07;3.22;;;;;;;;;;2090716;28;20639;-65
2022/07/28 00:24:40;;;;;;;6.55;3.60;;;;;;;;;;2089820;28;20210;-66
2022/07/28 00:25:41;;;;;;;5.90;3.55;;;;;;;;;;2072969;28;20169;-63
2022/07/28 00:26:41;;;;;;;5.82;3.80;;;;;;;;;;2073291;28;20177;-64
2022/07/28 00:27:41;;;;;;;4.22;2.90;;;;;;;;;;2081684;28;20179;-65
2022/07/28 00:28:42;;;;;;;5.63;3.33;;;;;;;;;;2081792;28;20605;-65
2022/07/28 00:29:43;;;;;;;3.65;3.22;;;;;;;;;;2090398;28;20282;-65
2022/07/28 00:30:43;;;;;;;4.40;3.40;;;;;;;;;;2090255;28;20652;-65
2022/07/28 00:31:43;;;;;;;5.40;3.53;;;;;;;;;;2090497;28;20258;-67
2022/07/28 00:32:45;;;;;;;3.55;3.28;;;;;;;;;;2089955;28;20544;-66
2022/07/28 00:33:45;;;;;;;4.25;3.60;;;;;;;;;;2081316;28;20688;-65
2022/07/28 00:34:45;;;;;;;4.55;3.05;;;;;;;;;;2080069;28;20176;-65
2022/07/28 00:35:46;;;;;;;6.65;3.45;;;;;;;;;;2089914;28;20187;-66
2022/07/28 00:36:46;;;;;;;6.30;3.90;;;;;;;;;;2090094;28;20546;-65
2022/07/28 00:37:46;;;;;;;6.63;3.88;;;;;;;;;;2090187;28;20177;-65
2022/07/28 00:38:47;;;;;;;5.78;3.47;;;;;;;;;;2089915;28;20164;-66
2022/07/28 00:39:47;;;;;;;4.35;3.20;;;;;;;;;;2089963;28;20235;-65
2022/07/28 00:42:07;;;;;;;5.90;3.45;;;;;;;;;;2081744;28;20164;-64
2022/07/28 00:43:08;;;;;;;5.95;2.92;;;;;;;;;;2073093;28;20646;-65
2022/07/28 00:44:08;;;;;;;5.30;3.40;;;;;;;;;;2080004;28;20164;-66
2022/07/28 00:45:09;;;;;;;6.65;3.20;;;;;;;;;;2089859;28;20640;-65
2022/07/28 00:46:09;;;;;;;4.53;3.30;;;;;;;;;;2081032;28;20689;-65
2022/07/28 00:47:10;;;;;;;3.58;3.15;;;;;;;;;;2081358;28;20184;-64
2022/07/28 00:48:11;;;;;;;6.63;3.53;;;;;;;;;;2081656;28;20207;-66
2022/07/28 00:49:13;;;;;;;7.00;3.03;;;;;;;;;;2081458;28;20184;-65
2022/07/28 00:50:14;;;;;;;4.88;2.95;;;;;;;;;;2090536;28;20318;-64
2022/07/28 00:51:16;;;;;;;3.78;3.15;;;;;;;;;;2081149;28;20184;-65
2022/07/28 00:52:17;;;;;;;5.82;3.00;;;;;;;;;;2081993;28;20183;-64
2022/07/28 00:53:17;;;;;;;6.35;3.55;;;;;;;;;;2090475;28;20179;-65
2022/07/28 00:54:18;;;;;;;5.70;3.10;;;;;;;;;;2089515;28;20948;-65
2022/07/28 00:55:18;;;;;;;4.80;3.30;;;;;;;;;;2090227;28;20170;-67
2022/07/28 00:56:19;;;;;;;5.15;3.40;;;;;;;;;;2090175;28;20183;-64
2022/07/28 00:57:20;;;;;;;4.07;3.05;;;;;;;;;;2090262;28;20198;-64
2022/07/28 00:58:21;;;;;;;4.45;2.78;;;;;;;;;;2090497;28;20167;-64
2022/07/28 00:59:21;;;;;;;3.38;3.00;;;;;;;;;;2087660;28;20704;-65
2022/07/28 01:00:21;;;;;;;6.75;3.60;;;;;;;;;;2083245;28;20692;-65
2022/07/28 01:01:22;;;;;;;4.78;3.03;;;;;;;;;;2090811;28;20190;-66
2022/07/28 01:02:23;;;;;;;6.13;3.60;;;;;;;;;;2081262;28;20200;-66
2022/07/28 01:03:24;;;;;;;3.72;2.72;;;;;;;;;;2081137;28;20177;-65
2022/07/28 01:04:24;;;;;;;8.18;3.58;;;;;;;;;;2088601;28;20178;-65
2022/07/28 01:05:30;;;;;;;6.13;3.22;;;;;;;;;;2089628;28;20183;-65
2022/07/28 01:06:30;;;;;;;3.47;2.90;;;;;;;;;;2089601;28;20176;-67
2022/07/28 01:07:47;;;;;;;3.95;2.90;;;;;;;;;;2086343;28;20171;-65
2022/07/28 01:09:05;;;;;;;4.43;2.78;;;;;;;;;;2072668;28;20226;-63
2022/07/28 01:10:20;;;;;;;3.92;3.03;;;;;;;;;;2073615;28;20176;-64
2022/07/28 01:11:33;;;;;;;6.53;3.10;;;;;;;;;;2083206;28;20182;-64
2022/07/28 01:12:44;;;;;;;4.65;2.90;;;;;;;;;;2089692;28;20543;-65
2022/07/28 01:13:48;;;;;;;5.90;3.20;;;;;;;;;;2089590;28;20267;-64
2022/07/28 01:15:07;;;;;;;5.47;2.92;;;;;;;;;;2088892;28;20251;-64
2022/07/28 01:16:07;;;;;;;5.07;3.03;;;;;;;;;;2080577;28;20175;-65
2022/07/28 01:17:10;;;;;;;4.32;3.10;;;;;;;;;;2085072;28;20187;-65
2022/07/28 01:18:19;;;;;;;7.28;2.83;;;;;;;;;;2090028;28;20175;-65
2022/07/28 01:19:27;;;;;;;4.90;3.30;;;;;;;;;;2089344;28;20237;-65
2022/07/28 01:20:33;;;;;;;4.15;3.00;;;;;;;;;;2081433;28;20189;-65
2022/07/28 01:21:34;;;;;;;3.67;3.10;;;;;;;;;;2084624;28;20167;-65
2022/07/28 01:22:48;;;;;;;6.70;3.63;;;;;;;;;;2089768;28;20654;-66
2022/07/28 01:23:55;;;;;;;4.25;3.30;;;;;;;;;;2089696;28;20645;-66
2022/07/28 01:25:05;;;;;;;4.10;3.30;;;;;;;;;;2089110;28;20168;-66
2022/07/28 01:26:15;;;;;;;4.18;3.47;;;;;;;;;;2072502;28;20200;-66
2022/07/28 01:27:26;;;;;;;4.90;3.65;;;;;;;;;;2074866;28;20260;-66
2022/07/28 01:28:45;;;;;;;3.70;3.17;;;;;;;;;;2088906;28;20243;-66
2022/07/28 01:29:45;;;;;;;4.65;3.20;;;;;;;;;;2090501;28;20175;-66
2022/07/28 01:30:48;;;;;;;4.63;3.00;;;;;;;;;;2090195;28;20196;-66
2022/07/28 01:31:58;;;;;;;4.95;3.15;;;;;;;;;;2090417;28;20199;-66
2022/07/28 01:33:00;;;;;;;3.17;2.88;;;;;;;;;;2090634;28;20214;-65
2022/07/28 01:34:04;;;;;;;4.35;3.47;;;;;;;;;;2080981;28;20163;-65
2022/07/28 01:35:08;;;;;;;5.05;3.00;;;;;;;;;;2082107;28;20172;-66
2022/07/28 01:36:10;;;;;;;3.30;2.90;;;;;;;;;;2090789;28;20167;-67
2022/07/28 01:37:12;;;;;;;4.70;3.50;;;;;;;;;;2090935;28;20160;-65
2022/07/28 01:38:13;;;;;;;7.38;3.40;;;;;;;;;;2090847;28;20175;-65
2022/07/28 01:39:13;;;;;;;3.35;3.05;;;;;;;;;;2090088;28;20187;-67
2022/07/28 01:40:16;;;;;;;5.88;3.55;;;;;;;;;;2089908;28;20549;-67
2022/07/28 01:41:18;;;;;;;3.97;3.30;;;;;;;;;;2090253;28;20163;-66
2022/07/28 01:42:21;;;;;;;3.50;3.20;;;;;;;;;;2089940;28;20174;-66
2022/07/28 01:43:23;;;;;;;5.50;3.30;;;;;;;;;;2089531;28;20679;-67
2022/07/28 01:44:25;;;;;;;5.60;3.20;;;;;;;;;;2088595;28;20675;-65
2022/07/28 01:45:26;;;;;;;5.75;3.65;;;;;;;;;;2080545;28;20215;-66
2022/07/28 01:46:27;;;;;;;4.95;3.38;;;;;;;;;;2080832;28;20168;-65
2022/07/28 01:47:28;;;;;;;5.45;3.40;;;;;;;;;;2089536;28;20655;-65
2022/07/28 01:48:30;;;;;;;6.10;3.50;;;;;;;;;;2089486;28;20667;-66
2022/07/28 01:49:31;;;;;;;6.93;3.90;;;;;;;;;;2089688;28;20837;-65
2022/07/28 01:50:32;;;;;;;4.25;3.50;;;;;;;;;;2089311;28;20210;-66
2022/07/28 01:51:33;;;;;;;5.53;3.50;;;;;;;;;;2089667;28;20167;-66
2022/07/28 01:52:36;;;;;;;6.40;3.58;;;;;;;;;;2080633;28;20270;-66
2022/07/28 01:53:37;;;;;;;8.98;3.50;;;;;;;;;;2080869;28;20164;-65
2022/07/28 01:54:39;;;;;;;4.38;3.17;;;;;;;;;;2088646;28;20178;-65
2022/07/28 01:55:42;;;;;;;3.95;3.65;;;;;;;;;;2072128;28;20228;-64
2022/07/28 01:56:43;;;;;;;7.53;3.55;;;;;;;;;;2064429;28;20218;-65
2022/07/28 01:57:45;;;;;;;4.55;3.00;;;;;;;;;;2072720;28;20216;-65
2022/07/28 01:58:46;;;;;;;5.28;3.10;;;;;;;;;;2078402;28;20168;-65
2022/07/28 01:59:47;;;;;;;4.78;3.70;;;;;;;;;;2064475;28;20224;-65
2022/07/28 02:00:49;;;;;;;4.30;3.13;;;;;;;;;;2072233;28;20263;-65
2022/07/28 02:01:50;;;;;;;6.20;3.50;;;;;;;;;;2089548;28;20206;-65
2022/07/28 02:02:51;;;;;;;3.72;3.25;;;;;;;;;;2089455;28;20255;-65
2022/07/28 02:03:53;;;;;;;5.60;3.25;;;;;;;;;;2080015;28;20172;-64
2022/07/28 02:04:54;;;;;;;4.47;3.92;;;;;;;;;;2080033;28;20172;-67
2022/07/28 02:05:56;;;;;;;4.75;3.65;;;;;;;;;;2080516;28;20604;-66
2022/07/28 02:06:56;;;;;;;7.53;4.32;;;;;;;;;;2080557;28;20172;-65
2022/07/28 02:07:58;;;;;;;4.07;3.58;;;;;;;;;;2073670;28;20680;-66
2022/07/28 02:08:59;;;;;;;4.85;3.95;;;;;;;;;;2081076;28;20215;-66
2022/07/28 02:10:00;;;;;;;5.00;3.47;;;;;;;;;;2072453;28;20176;-65
2022/07/28 02:12:19;;;;;;;6.85;4.05;;;;;;;;;;2089340;28;20213;-66
2022/07/28 02:13:20;;;;;;;4.55;4.10;;;;;;;;;;2089188;28;20662;-66
2022/07/28 02:14:22;;;;;;;5.82;3.63;;;;;;;;;;2088543;28;20542;-65
2022/07/28 02:15:25;;;;;;;4.25;3.60;;;;;;;;;;2089422;28;20554;-64
2022/07/28 02:16:26;;;;;;;3.72;3.42;;;;;;;;;;2089261;28;20167;-65
2022/07/28 02:17:29;;;;;;;5.93;3.67;;;;;;;;;;2089461;28;20168;-65
2022/07/28 02:18:31;;;;;;;4.00;3.60;;;;;;;;;;2089427;28;20171;-65
2022/07/28 02:19:31;;;;;;;7.53;3.60;;;;;;;;;;2089220;28;20591;-65
2022/07/28 02:20:32;;;;;;;3.42;3.13;;;;;;;;;;2089394;28;20203;-66
2022/07/28 02:21:33;;;;;;;7.45;3.80;;;;;;;;;;2089503;28;20528;-64
2022/07/28 02:22:35;;;;;;;3.78;3.40;;;;;;;;;;2089503;28;20174;-66
2022/07/28 02:23:37;;;;;;;4.18;3.25;;;;;;;;;;2089741;28;20172;-64
2022/07/28 02:24:39;;;;;;;4.28;3.20;;;;;;;;;;2088660;28;20168;-64
2022/07/28 02:25:40;;;;;;;4.82;3.30;;;;;;;;;;2089312;28;20257;-65
2022/07/28 02:26:44;;;;;;;5.10;3.63;;;;;;;;;;2080811;28;20207;-65
2022/07/28 02:27:50;;;;;;;3.40;3.20;;;;;;;;;;2081181;28;20180;-66
2022/07/28 02:28:52;;;;;;;4.68;3.28;;;;;;;;;;2089517;28;20168;-64
2022/07/28 02:29:59;;;;;;;4.35;3.28;;;;;;;;;;2089603;28;20184;-63
2022/07/28 02:31:26;;;;;;;5.35;3.15;;;;;;;;;;2089492;28;20156;-65
2022/07/28 02:32:29;;;;;;;5.20;3.67;;;;;;;;;;2086542;28;20183;-64
2022/07/28 02:33:31;;;;;;;4.70;3.53;;;;;;;;;;2089559;28;20342;-65
2022/07/28 02:34:34;;;;;;;3.50;3.00;;;;;;;;;;2088791;28;20171;-65
2022/07/28 02:35:45;;;;;;;4.78;3.85;;;;;;;;;;2089418;28;20191;-64
2022/07/28 02:36:49;;;;;;;4.05;3.70;;;;;;;;;;2089386;28;20210;-66
2022/07/28 02:37:52;;;;;;;3.63;3.33;;;;;;;;;;2089534;28;20187;-64
2022/07/28 02:38:55;;;;;;;4.45;3.22;;;;;;;;;;2080575;28;20172;-62
2022/07/28 02:39:55;;;;;;;5.28;3.45;;;;;;;;;;2080802;28;20255;-65
2022/07/28 02:40:59;;;;;;;4.03;3.55;;;;;;;;;;2089219;28;20160;-65
2022/07/28 02:42:03;;;;;;;6.55;3.42;;;;;;;;;;2080466;28;20528;-65
2022/07/28 02:43:07;;;;;;;5.28;4.30;;;;;;;;;;2080994;28;20258;-64
2022/07/28 02:44:18;;;;;;;6.30;3.70;;;;;;;;;;2079724;28;20172;-65
2022/07/28 02:45:20;;;;;;;5.40;3.92;;;;;;;;;;2083104;28;20165;-65
2022/07/28 02:46:23;;;;;;;6.35;3.78;;;;;;;;;;2080568;28;20168;-65
2022/07/28 02:47:25;;;;;;;3.88;3.55;;;;;;;;;;2080880;28;20180;-65
2022/07/28 02:48:28;;;;;;;6.20;3.70;;;;;;;;;;2089288;28;20172;-66
2022/07/28 02:49:32;;;;;;;6.50;4.00;;;;;;;;;;2090029;28;20183;-66
2022/07/28 02:50:33;;;;;;;6.30;3.88;;;;;;;;;;2081619;28;20184;-65
2022/07/28 02:51:33;;;;;;;5.60;3.65;;;;;;;;;;2081316;28;20168;-64
2022/07/28 02:52:34;;;;;;;4.03;3.40;;;;;;;;;;2081745;28;20242;-66
2022/07/28 02:53:36;;;;;;;6.57;3.42;;;;;;;;;;2081962;28;20164;-66
2022/07/28 02:54:36;;;;;;;3.50;3.17;;;;;;;;;;2081969;28;20767;-65
2022/07/28 02:55:38;;;;;;;3.58;3.20;;;;;;;;;;2090439;28;20195;-65
2022/07/28 02:56:40;;;;;;;6.63;3.92;;;;;;;;;;2090571;28;20529;-64
2022/07/28 02:57:42;;;;;;;5.82;3.78;;;;;;;;;;2090794;28;20199;-65
2022/07/28 02:58:43;;;;;;;6.15;3.85;;;;;;;;;;2090795;28;20174;-64
2022/07/28 02:59:43;;;;;;;3.53;3.22;;;;;;;;;;2090532;28;20213;-65
2022/07/28 03:00:44;;;;;;;3.95;3.10;;;;;;;;;;2090560;28;20263;-65
2022/07/28 03:01:46;;;;;;;4.25;3.10;;;;;;;;;;2090580;28;20175;-65
2022/07/28 03:02:46;;;;;;;4.95;3.47;;;;;;;;;;2090647;28;20732;-66
2022/07/28 03:03:47;;;;;;;5.75;3.60;;;;;;;;;;2081747;28;20172;-66
2022/07/28 03:04:57;;;;;;;6.35;3.65;;;;;;;;;;2072799;28;20220;-65
2022/07/28 03:05:58;;;;;;;5.45;3.58;;;;;;;;;;2083239;28;20169;-65
2022/07/28 03:06:59;;;;;;;6.20;3.13;;;;;;;;;;2090828;28;20206;-66
2022/07/28 03:07:59;;;;;;;4.35;2.88;;;;;;;;;;2090619;28;20182;-66
2022/07/28 03:09:00;;;;;;;4.72;3.65;;;;;;;;;;2090662;28;20164;-66
2022/07/28 03:10:00;;;;;;;4.93;4.18;;;;;;;;;;2090823;28;20184;-65
2022/07/28 03:11:07;;;;;;;6.07;3.63;;;;;;;;;;2090567;28;20168;-65
2022/07/28 03:12:08;;;;;;;4.40;3.50;;;;;;;;;;2090504;28;20187;-65
2022/07/28 03:13:09;;;;;;;6.85;3.50;;;;;;;;;;2080919;28;20180;-65
2022/07/28 03:14:09;;;;;;;3.75;3.15;;;;;;;;;;2081011;28;20195;-66
2022/07/28 03:15:09;;;;;;;5.13;3.33;;;;;;;;;;2081726;28;20180;-66
2022/07/28 03:16:10;;;;;;;6.32;3.08;;;;;;;;;;2081714;28;20672;-65
2022/07/28 03:17:10;;;;;;;4.53;3.65;;;;;;;;;;2090582;28;20600;-65
2022/07/28 03:18:10;;;;;;;3.58;3.25;;;;;;;;;;2090768;28;20171;-66
2022/07/28 03:19:11;;;;;;;6.22;3.40;;;;;;;;;;2090357;28;20894;-65
2022/07/28 03:20:11;;;;;;;6.03;3.70;;;;;;;;;;2090679;28;20164;-65
2022/07/28 03:21:12;;;;;;;6.25;3.50;;;;;;;;;;2090482;28;20184;-66
2022/07/28 03:22:12;;;;;;;3.97;3.53;;;;;;;;;;2090363;28;20179;-65
2022/07/28 03:23:13;;;;;;;7.13;3.95;;;;;;;;;;2090771;28;20221;-66
2022/07/28 03:24:15;;;;;;;6.53;3.80;;;;;;;;;;2080900;28;20295;-65
2022/07/28 03:25:22;;;;;;;5.30;3.63;;;;;;;;;;2081879;28;20176;-65
2022/07/28 03:26:39;;;;;;;4.25;3.90;;;;;;;;;;2090643;28;20512;-66
2022/07/28 03:27:41;;;;;;;4.00;3.60;;;;;;;;;;2090636;28;20520;-65
2022/07/28 03:28:42;;;;;;;5.60;3.67;;;;;;;;;;2081497;28;20176;-66
2022/07/28 03:29:44;;;;;;;5.03;3.85;;;;;;;;;;2081712;28;20200;-65
2022/07/28 03:30:49;;;;;;;4.85;3.72;;;;;;;;;;2090500;28;20258;-65
2022/07/28 03:31:53;;;;;;;4.60;3.85;;;;;;;;;;2084164;28;20264;-65
2022/07/28 03:32:55;;;;;;;4.68;4.15;;;;;;;;;;2086973;28;20547;-65
2022/07/28 03:33:56;;;;;;;5.70;3.40;;;;;;;;;;2088561;28;20267;-66
2022/07/28 03:34:57;;;;;;;4.28;3.92;;;;;;;;;;2081149;28;20176;-64
2022/07/28 03:35:58;;;;;;;5.05;4.60;;;;;;;;;;2086094;28;20283;-65
2022/07/28 03:37:01;;;;;;;5.05;4.15;;;;;;;;;;2090540;28;20170;-65
2022/07/28 03:38:07;;;;;;;4.30;4.00;;;;;;;;;;2090369;28;20723;-64
2022/07/28 03:39:10;;;;;;;8.48;5.07;;;;;;;;;;2090552;28;20188;-65
2022/07/28 03:40:11;;;;;;;6.68;4.57;;;;;;;;;;2081574;28;20275;-65
2022/07/28 03:41:12;;;;;;;7.45;4.47;;;;;;;;;;2081137;28;20207;-66
2022/07/28 03:42:19;;;;;;;6.20;4.50;;;;;;;;;;2087891;28;20172;-64
2022/07/28 03:43:21;;;;;;;4.30;4.00;;;;;;;;;;2090391;28;20301;-65
2022/07/28 03:44:22;;;;;;;6.57;4.28;;;;;;;;;;2089385;28;20171;-67
2022/07/28 03:45:22;;;;;;;7.93;4.30;;;;;;;;;;2090556;28;20186;-66
2022/07/28 03:46:24;;;;;;;6.93;4.18;;;;;;;;;;2090243;28;20164;-65
2022/07/28 03:47:24;;;;;;;4.53;3.60;;;;;;;;;;2088145;28;20663;-64
2022/07/28 03:48:28;;;;;;;10.93;4.38;;;;;;;;;;2090396;28;20199;-64
2022/07/28 03:49:29;;;;;;;4.03;3.70;;;;;;;;;;2086264;28;20188;-64
2022/07/28 03:50:30;;;;;;;6.85;4.47;;;;;;;;;;2087214;28;20179;-65
2022/07/28 03:51:30;;;;;;;5.20;3.75;;;;;;;;;;2090366;28;20210;-65
2022/07/28 03:52:31;;;;;;;5.72;4.30;;;;;;;;;;2090529;28;20183;-64
2022/07/28 03:53:31;;;;;;;4.90;4.05;;;;;;;;;;2090300;28;20196;-65
2022/07/28 03:54:31;;;;;;;4.00;3.67;;;;;;;;;;2084566;28;20190;-65
2022/07/28 03:55:32;;;;;;;4.20;3.88;;;;;;;;;;2080651;28;20283;-65
2022/07/28 03:56:32;;;;;;;5.28;4.30;;;;;;;;;;2081761;28;20172;-66
2022/07/28 03:57:32;;;;;;;5.00;4.05;;;;;;;;;;2072522;28;20260;-64
2022/07/28 03:58:33;;;;;;;5.38;3.97;;;;;;;;;;2072506;28;20307;-66
2022/07/28 03:59:33;;;;;;;9.65;3.95;;;;;;;;;;2077800;28;20680;-65
2022/07/28 04:00:34;;;;;;;4.68;3.80;;;;;;;;;;2080713;28;20176;-66
2022/07/28 04:01:34;;;;;;;5.07;3.85;;;;;;;;;;2090292;28;20198;-65
2022/07/28 04:02:35;;;;;;;7.45;3.95;;;;;;;;;;2090596;28;20209;-65
2022/07/28 04:03:35;;;;;;;4.53;3.53;;;;;;;;;;2090510;28;20517;-65
2022/07/28 04:04:36;;;;;;;4.20;3.63;;;;;;;;;;2089762;28;20258;-65
2022/07/28 04:05:36;;;;;;;5.82;4.15;;;;;;;;;;2090420;28;20171;-65
2022/07/28 04:06:36;;;;;;;6.50;3.85;;;;;;;;;;2090423;28;20252;-66
2022/07/28 04:07:37;;;;;;;4.68;4.03;;;;;;;;;;2090531;28;20198;-65
2022/07/28 04:08:38;;;;;;;6.85;3.97;;;;;;;;;;2090557;28;20178;-65
2022/07/28 04:09:38;;;;;;;3.97;3.53;;;;;;;;;;2090097;28;20686;-65
2022/07/28 04:10:38;;;;;;;4.97;4.00;;;;;;;;;;2090427;28;20633;-65
2022/07/28 04:11:39;;;;;;;6.55;3.90;;;;;;;;;;2090468;28;20176;-63
2022/07/28 04:12:46;;;;;;;6.18;4.43;;;;;;;;;;2090960;28;20636;-64
2022/07/28 04:13:47;;;;;;;6.72;4.65;;;;;;;;;;2090565;28;20207;-64
2022/07/28 04:14:47;;;;;;;4.93;4.07;;;;;;;;;;2080748;28;20175;-66
2022/07/28 04:15:47;;;;;;;6.68;3.92;;;;;;;;;;2081573;28;20200;-65
2022/07/28 04:16:48;;;;;;;5.85;4.13;;;;;;;;;;2090643;28;20182;-65
2022/07/28 04:17:49;;;;;;;6.68;4.57;;;;;;;;;;2090490;28;20217;-65
2022/07/28 04:18:50;;;;;;;4.68;4.28;;;;;;;;;;2090551;28;20527;-66
2022/07/28 04:19:50;;;;;;;5.60;4.28;;;;;;;;;;2081573;28;20188;-65
2022/07/28 04:20:50;;;;;;;4.20;3.90;;;;;;;;;;2081476;28;20168;-64
2022/07/28 04:21:50;;;;;;;6.93;4.07;;;;;;;;;;2090290;28;20257;-66
2022/07/28 04:22:51;;;;;;;4.30;3.90;;;;;;;;;;2086597;28;20163;-62
2022/07/28 04:23:51;;;;;;;4.22;3.83;;;;;;;;;;2089798;28;20160;-64
2022/07/28 04:24:52;;;;;;;6.03;3.80;;;;;;;;;;2089244;28;20177;-65
2022/07/28 04:25:52;;;;;;;4.93;3.92;;;;;;;;;;2081666;28;20182;-66
2022/07/28 04:26:53;;;;;;;4.22;3.92;;;;;;;;;;2081110;28;20227;-64
2022/07/28 04:27:53;;;;;;;5.15;3.47;;;;;;;;;;2081600;28;20172;-66
2022/07/28 04:28:53;;;;;;;5.75;3.85;;;;;;;;;;2087836;28;20171;-63
2022/07/28 04:29:54;;;;;;;7.72;4.15;;;;;;;;;;2080647;28;20625;-64
2022/07/28 04:30:54;;;;;;;4.05;3.65;;;;;;;;;;2079984;28;20548;-63
2022/07/28 04:31:54;;;;;;;6.05;4.35;;;;;;;;;;2081089;28;20190;-67
2022/07/28 04:32:55;;;;;;;7.25;3.95;;;;;;;;;;2082126;28;20168;-65
2022/07/28 04:33:55;;;;;;;4.18;3.78;;;;;;;;;;2089839;28;20269;-64
2022/07/28 04:34:55;;;;;;;6.32;3.75;;;;;;;;;;2089550;28;20251;-62
2022/07/28 04:35:56;;;;;;;7.18;4.20;;;;;;;;;;2083204;28;20195;-61
2022/07/28 04:36:57;;;;;;;5.80;5.00;;;;;;;;;;2085280;28;20215;-62
2022/07/28 04:37:57;;;;;;;8.65;5.00;;;;;;;;;;2085675;28;20214;-63
2022/07/28 04:38:58;;;;;;;7.10;5.57;;;;;;;;;;2081774;28;20168;-62
2022/07/28 04:39:58;;;;;;;6.25;5.65;;;;;;;;;;2081867;28;20631;-63
2022/07/28 04:40:58;;;;;;;7.75;6.07;;;;;;;;;;2080565;28;20160;-62
2022/07/28 04:41:59;;;;;;;8.82;6.50;;;;;;;;;;2081233;28;20614;-63
2022/07/28 04:42:59;;;;;;;5.78;4.90;;;;;;;;;;2072921;28;20169;-62
2022/07/28 04:44:00;;;;;;;7.30;5.47;;;;;;;;;;2072197;28;20169;-62
2022/07/28 04:45:00;;;;;;;7.05;6.28;;;;;;;;;;2064767;28;20188;-62
2022/07/28 04:46:00;;;;;;;7.78;6.65;;;;;;;;;;2064957;28;20185;-60
2022/07/28 04:47:01;;;;;;;6.68;6.05;;;;;;;;;;2081851;28;20168;-62
2022/07/28 04:48:01;;;;;;;6.88;5.78;;;;;;;;;;2081830;28;20641;-62
2022/07/28 04:49:02;;;;;;;7.78;5.78;;;;;;;;;;2081127;28;20172;-63
2022/07/28 04:50:04;;;;;;;6.35;5.32;;;;;;;;;;2088240;28;20194;-60
2022/07/28 04:51:04;;;;;;;6.88;5.32;;;;;;;;;;2089930;28;20183;-61
2022/07/28 04:52:05;;;;;;;6.65;5.63;;;;;;;;;;2089758;28;20171;-61
2022/07/28 04:53:05;;;;;;;6.47;5.00;;;;;;;;;;2089787;28;20164;-62
2022/07/28 04:54:05;;;;;;;7.95;5.45;;;;;;;;;;2088977;28;20184;-63
2022/07/28 04:55:06;;;;;;;6.45;5.45;;;;;;;;;;2072828;28;20208;-58
2022/07/28 04:56:06;;;;;;;5.47;4.95;;;;;;;;;;2073064;28;20284;-61
2022/07/28 04:57:09;;;;;;;5.35;4.88;;;;;;;;;;2089909;28;20654;-63
2022/07/28 04:58:11;;;;;;;5.55;4.43;;;;;;;;;;2089978;28;20176;-60
2022/07/28 04:59:11;;;;;;;6.07;5.43;;;;;;;;;;2080828;28;20214;-62
2022/07/28 05:00:13;;;;;;;5.72;5.22;;;;;;;;;;2080915;28;20211;-63
2022/07/28 05:01:13;;;;;;;6.85;4.43;;;;;;;;;;2090061;28;20179;-62
2022/07/28 05:02:13;;;;;;;7.07;4.88;;;;;;;;;;2072936;28;20278;-62
2022/07/28 05:03:14;;;;;;;5.90;4.40;;;;;;;;;;2073133;28;20169;-63
2022/07/28 05:04:14;;;;;;;6.97;4.30;;;;;;;;;;2080049;28;20172;-61
2022/07/28 05:05:15;;;;;;;6.68;4.30;;;;;;;;;;2073131;28;20245;-62
2022/07/28 05:06:17;;;;;;;6.57;4.43;;;;;;;;;;2081031;28;20664;-63
2022/07/28 05:07:17;;;;;;;4.68;4.28;;;;;;;;;;2080602;28;20201;-62
2022/07/28 05:08:18;;;;;;;5.45;4.68;;;;;;;;;;2080767;28;20188;-62
2022/07/28 05:09:18;;;;;;;5.22;4.38;;;;;;;;;;2089751;28;20191;-62
2022/07/28 05:10:18;;;;;;;5.50;4.22;;;;;;;;;;2089975;28;20171;-61
2022/07/28 05:11:19;;;;;;;4.53;3.75;;;;;;;;;;2090132;28;20248;-61
2022/07/28 05:12:19;;;;;;;7.85;4.80;;;;;;;;;;2084075;28;20172;-62
2022/07/28 05:13:19;;;;;;;4.25;3.85;;;;;;;;;;2081730;28;20179;-61
2022/07/28 05:14:20;;;;;;;11.73;4.35;;;;;;;;;;2088374;28;20171;-63
2022/07/28 05:15:20;;;;;;;4.50;4.03;;;;;;;;;;2089436;28;20611;-62
2022/07/28 05:16:20;;;;;;;6.53;4.28;;;;;;;;;;2088848;28;20176;-64
2022/07/28 05:17:20;;;;;;;5.75;4.70;;;;;;;;;;2089843;28;20175;-61
2022/07/28 05:18:21;;;;;;;6.20;4.32;;;;;;;;;;2090102;28;20270;-61
2022/07/28 05:19:21;;;;;;;4.53;4.20;;;;;;;;;;2081595;28;20192;-62
2022/07/28 05:20:22;;;;;;;6.32;4.80;;;;;;;;;;2081276;28;20184;-59
2022/07/28 05:21:22;;;;;;;5.97;4.93;;;;;;;;;;2081386;28;20171;-61
2022/07/28 05:22:22;;;;;;;10.32;5.75;;;;;;;;;;2079951;28;20255;-62
2022/07/28 05:23:23;;;;;;;8.35;4.90;;;;;;;;;;2090238;28;20267;-62
2022/07/28 05:24:23;;;;;;;5.13;4.50;;;;;;;;;;2089320;28;20268;-62
2022/07/28 05:25:24;;;;;;;4.93;4.43;;;;;;;;;;2090242;28;20716;-63
2022/07/28 05:26:25;;;;;;;4.28;3.97;;;;;;;;;;2089955;28;20531;-62
2022/07/28 05:27:25;;;;;;;6.80;4.45;;;;;;;;;;2089986;28;20563;-62
2022/07/28 05:28:26;;;;;;;4.93;4.43;;;;;;;;;;2089529;28;20266;-65
2022/07/28 05:29:26;;;;;;;7.22;4.72;;;;;;;;;;2089626;28;20198;-63
2022/07/28 05:30:27;;;;;;;5.60;4.75;;;;;;;;;;2081290;28;20211;-63
2022/07/28 05:31:27;;;;;;;6.20;4.85;;;;;;;;;;2073595;28;20200;-64
2022/07/28 05:32:27;;;;;;;4.78;4.38;;;;;;;;;;2081245;28;20233;-61
2022/07/28 05:33:27;;;;;;;4.80;4.30;;;;;;;;;;2090403;28;20167;-64
2022/07/28 05:34:28;;;;;;;7.70;4.65;;;;;;;;;;2088281;28;20246;-63
2022/07/28 05:35:28;;;;;;;5.00;4.50;;;;;;;;;;2089389;28;20218;-65
2022/07/28 05:36:29;;;;;;;7.32;4.50;;;;;;;;;;2089142;28;20290;-63
2022/07/28 05:37:31;;;;;;;6.72;4.80;;;;;;;;;;2089622;28;20175;-64
2022/07/28 05:38:31;;;;;;;5.00;4.60;;;;;;;;;;2089446;28;20190;-63
2022/07/28 05:39:31;;;;;;;6.75;4.63;;;;;;;;;;2089708;28;20197;-63
2022/07/28 05:40:32;;;;;;;6.50;4.32;;;;;;;;;;2088976;28;20191;-64
2022/07/28 05:41:32;;;;;;;4.38;4.00;;;;;;;;;;2089718;28;20266;-63
2022/07/28 05:42:34;;;;;;;8.40;5.03;;;;;;;;;;2089200;28;20325;-64
2022/07/28 05:43:36;;;;;;;5.68;4.15;;;;;;;;;;2089205;28;20167;-63
2022/07/28 05:44:37;;;;;;;7.13;4.43;;;;;;;;;;2079846;28;20246;-63
2022/07/28 05:45:37;;;;;;;8.38;4.88;;;;;;;;;;2080725;28;20206;-64
2022/07/28 05:46:37;;;;;;;5.32;4.50;;;;;;;;;;2079942;28;20176;-65
2022/07/28 05:47:42;;;;;;;6.20;4.03;;;;;;;;;;2080090;28;20205;-63
2022/07/28 05:48:42;;;;;;;8.75;5.10;;;;;;;;;;2079968;28;20182;-63
2022/07/28 05:49:43;;;;;;;5.20;4.50;;;;;;;;;;2080277;28;20624;-63
2022/07/28 05:50:43;;;;;;;5.68;4.65;;;;;;;;;;2086861;28;20225;-63
2022/07/28 05:51:44;;;;;;;7.75;4.47;;;;;;;;;;2089101;28;20194;-63
2022/07/28 05:52:45;;;;;;;5.40;4.50;;;;;;;;;;2088934;28;20570;-63
2022/07/28 05:53:45;;;;;;;6.72;5.07;;;;;;;;;;2086941;28;20210;-63
2022/07/28 05:54:45;;;;;;;4.47;3.60;;;;;;;;;;2088114;28;20179;-61
2022/07/28 05:55:46;;;;;;;3.85;3.55;;;;;;;;;;2088928;28;20325;-63
2022/07/28 05:56:47;;;;;;;3.92;3.45;;;;;;;;;;2089172;28;20247;-63
2022/07/28 05:57:47;;;;;;;3.80;3.50;;;;;;;;;;2080079;28;20168;-62
2022/07/28 05:58:47;;;;;;;4.10;3.40;;;;;;;;;;2080436;28;20730;-62
2022/07/28 05:59:48;;;;;;;5.90;4.18;;;;;;;;;;2080536;28;20230;-65
2022/07/28 06:00:49;;;;;;;5.35;3.60;;;;;;;;;;2092938;28;20160;-64
2022/07/28 06:01:49;;;;;;;3.53;3.30;;;;;;;;;;2094718;28;20168;-64
2022/07/28 06:02:49;;;;;;;5.10;3.60;;;;;;;;;;2092588;28;20175;-64
2022/07/28 06:03:51;;;;;;;4.13;2.80;;;;;;;;;;2090408;28;20174;-64
2022/07/28 06:04:52;;;;;;;4.90;4.10;;;;;;;;;;2080716;28;20176;-64
2022/07/28 06:05:55;;;;;;;3.70;3.35;;;;;;;;;;2080949;28;20172;-64
2022/07/28 06:06:56;;;;;;;3.60;3.28;;;;;;;;;;2081882;28;20172;-62
2022/07/28 06:07:56;;;;;;;4.03;2.75;;;;;;;;;;2089649;28;20547;-63
2022/07/28 06:08:57;;;;;;;5.43;3.30;;;;;;;;;;2081373;28;20168;-64
2022/07/28 06:09:57;;;;;;;6.10;3.33;;;;;;;;;;2080834;28;20767;-63
2022/07/28 06:10:57;;;;;;;4.78;2.85;;;;;;;;;;2089898;28;20210;-62
2022/07/28 06:11:58;;;;;;;4.47;3.40;;;;;;;;;;2089745;28;20186;-64
2022/07/28 06:12:58;;;;;;;8.80;3.08;;;;;;;;;;2089776;28;20168;-64